Airfield :
LOGIN :

Register | Disclaimer

   EN    FR    IT 

 










Legend :    VFR   Marginal VFR   IFR   Intensive IFR   Very Intensive IFR
Visi :
Ceiling :
>= 8 km
>= 3000ft
5 to 8 km
1000 to 3000 ft
1500m to 5 km
500 to 1000 ft
800 to 1500m
200 to 500 ft
< 800m
< 200 ft
Symbols :   Thunderstorms  Fog  Heavy snow  Heavy precipitations  Wind > 20 kt
SIGMETs :     Misc.  Thunderstorms  Icing  Turbulence  Mountain Waves  Volcanic Ashes






- Airport Elevation : 86 ft


LERT - Rota Navy

CURRENT METAR :
  • 281930Z 26011KT 240V300 9999 FEW020 20/19 Q1012 NOSIG

EXPIRED METARs :
  • 281900Z 26011KT 230V290 9999 FEW009 20/19 Q1012 NOSIG
  • 281830Z 27013KT 9999 FEW009 21/19 Q1012 NOSIG
  • 281800Z 27013KT 9999 FEW010 21/19 Q1012 NOSIG
  • 281730Z 27013KT 250V310 CAVOK 22/19 Q1012 NOSIG
  • 281700Z 26013KT 230V290 CAVOK 23/19 Q1012 NOSIG

TAF TAF LERT
Valid from the 28 at 15:00 until the 29 at 15:00 UTC


281400Z 2815/2915 26010KT CAVOK TX23/2912Z TN17/2905Z
TEMPO 2822/2906 BKN010



MET'MAP, your aeronautical weather chart ! - Copyright ORBIFLY December 2007 - Disclaimer

ORBIFLY MET'MAP TEAM :

Programming & Development : Alexandra Zaïnal
Original concept : Baudouin d'Aumeries
Technical & hardware support : Manuel Goepfert
Assistance : Marc-Olivier Méhu

Contact : metmap@orbifly.com




SOURCES & CREDITS :

   NOAA